createdAt,value
2018-07-15T00:00:09.534Z,13.80
2018-07-15T00:00:43.774Z,13.80
2018-07-15T00:01:17.662Z,13.80
2018-07-15T00:01:51.954Z,13.80
2018-07-15T00:02:25.835Z,13.80
2018-07-15T00:02:59.707Z,13.80
2018-07-15T00:03:33.598Z,13.80
2018-07-15T00:04:07.497Z,13.80
2018-07-15T00:04:41.704Z,13.80
2018-07-15T00:05:15.590Z,13.80
2018-07-15T00:05:50.115Z,13.80
2018-07-15T00:06:23.999Z,13.80
2018-07-15T00:07:31.462Z,13.80
2018-07-15T00:08:05.381Z,13.80
2018-07-15T00:09:12.788Z,13.80
2018-07-15T00:09:46.707Z,13.80
2018-07-15T00:10:20.939Z,13.80
2018-07-15T00:10:55.119Z,13.80
2018-07-15T00:11:29.183Z,13.80
2018-07-15T00:12:03.097Z,13.80
2018-07-15T00:12:36.969Z,13.80
2018-07-15T00:13:44.818Z,13.80
2018-07-15T00:14:18.656Z,13.80
2018-07-15T00:14:52.881Z,13.80
2018-07-15T00:15:26.779Z,13.80
2018-07-15T00:16:00.616Z,13.80
2018-07-15T00:16:34.469Z,13.80
2018-07-15T00:17:08.330Z,13.70
2018-07-15T00:17:42.206Z,13.70
2018-07-15T00:18:16.605Z,13.70
2018-07-15T00:18:50.452Z,13.70
2018-07-15T00:19:24.662Z,13.70
2018-07-15T00:19:58.860Z,13.70
2018-07-15T00:20:33.060Z,13.70
2018-07-15T00:21:07.716Z,13.70
2018-07-15T00:21:41.588Z,13.70
2018-07-15T00:22:15.482Z,13.70
2018-07-15T00:22:49.322Z,13.70
2018-07-15T00:23:23.149Z,13.70
2018-07-15T00:23:57.036Z,13.70
2018-07-15T00:24:30.898Z,13.70
2018-07-15T00:25:05.092Z,13.70
2018-07-15T00:25:40.018Z,13.70
2018-07-15T00:26:13.877Z,13.70
2018-07-15T00:26:47.713Z,13.70
2018-07-15T00:27:21.585Z,13.70
2018-07-15T00:27:55.430Z,13.70
2018-07-15T00:28:29.624Z,13.70
2018-07-15T00:29:03.831Z,13.70
2018-07-15T00:29:38.028Z,13.70
2018-07-15T00:30:12.536Z,13.70
2018-07-15T00:30:53.202Z,13.70
2018-07-15T00:31:27.115Z,13.70
2018-07-15T00:32:00.966Z,13.70
2018-07-15T00:32:35.237Z,13.70
2018-07-15T00:33:09.131Z,13.70
2018-07-15T00:33:42.987Z,13.70
2018-07-15T00:34:17.204Z,13.70
2018-07-15T00:34:51.080Z,13.70
2018-07-15T00:35:25.064Z,13.70
2018-07-15T00:35:58.937Z,13.70
2018-07-15T00:36:32.806Z,13.70
2018-07-15T00:37:07.126Z,13.70
2018-07-15T00:37:41.040Z,13.70
2018-07-15T00:38:15.276Z,13.70
2018-07-15T00:38:49.153Z,13.60
2018-07-15T00:39:23.076Z,13.60
2018-07-15T00:39:57.260Z,13.60
2018-07-15T00:40:31.397Z,13.60
2018-07-15T00:41:05.286Z,13.60
2018-07-15T00:41:39.477Z,13.60
2018-07-15T00:42:13.654Z,13.60
2018-07-15T00:42:47.523Z,13.60
2018-07-15T00:43:21.712Z,13.60
2018-07-15T00:43:55.553Z,13.60
2018-07-15T00:44:29.466Z,13.60
2018-07-15T00:45:03.329Z,13.60
2018-07-15T00:45:37.170Z,13.60
2018-07-15T00:46:44.892Z,13.60
2018-07-15T00:47:19.066Z,13.60
2018-07-15T00:47:52.977Z,13.60
2018-07-15T00:48:26.848Z,13.60
2018-07-15T00:49:34.806Z,13.60
2018-07-15T00:50:09.342Z,13.60
2018-07-15T00:50:43.229Z,13.60
2018-07-15T00:51:17.408Z,13.60
2018-07-15T00:51:51.720Z,13.60
2018-07-15T00:52:25.638Z,13.60
2018-07-15T00:53:00.010Z,13.60
2018-07-15T00:53:34.204Z,13.50
2018-07-15T00:54:08.218Z,13.50
2018-07-15T00:54:42.060Z,13.50
2018-07-15T00:55:16.322Z,13.50
2018-07-15T00:55:50.995Z,13.50
2018-07-15T00:56:24.858Z,13.50
2018-07-15T00:57:32.577Z,13.50
2018-07-15T00:58:06.781Z,13.50
2018-07-15T00:58:40.652Z,13.50
2018-07-15T00:59:15.682Z,13.50
2018-07-15T00:59:49.536Z,13.50
2018-07-15T01:00:28.779Z,13.50
2018-07-15T01:01:03.629Z,13.50
2018-07-15T01:01:37.862Z,13.50
2018-07-15T01:02:11.688Z,13.50
2018-07-15T01:02:45.754Z,13.50
2018-07-15T01:03:19.682Z,13.50
2018-07-15T01:03:53.567Z,13.50
2018-07-15T01:04:27.736Z,13.50
2018-07-15T01:05:01.835Z,13.40
2018-07-15T01:05:35.872Z,13.50
2018-07-15T01:06:09.748Z,13.50
2018-07-15T01:06:43.620Z,13.40
2018-07-15T01:07:21.157Z,13.40
2018-07-15T01:07:55.142Z,13.40
2018-07-15T01:08:29.422Z,13.40
2018-07-15T01:09:03.939Z,13.40
2018-07-15T01:09:37.849Z,13.40
2018-07-15T01:10:45.904Z,13.40
2018-07-15T01:11:19.786Z,13.40
2018-07-15T01:11:54.158Z,13.40
2018-07-15T01:12:28.131Z,13.40
2018-07-15T01:13:02.343Z,13.40
2018-07-15T01:13:36.598Z,13.40
2018-07-15T01:14:10.916Z,13.40
2018-07-15T01:14:45.109Z,13.40
2018-07-15T01:15:18.968Z,13.40
2018-07-15T01:15:53.796Z,13.40
2018-07-15T01:16:27.988Z,13.40
2018-07-15T01:17:01.844Z,13.40
2018-07-15T01:17:35.674Z,13.30
2018-07-15T01:18:09.546Z,13.30
2018-07-15T01:18:43.810Z,13.30
2018-07-15T01:19:17.699Z,13.30
2018-07-15T01:19:51.566Z,13.30
2018-07-15T01:20:25.540Z,13.30
2018-07-15T01:20:59.552Z,13.30
2018-07-15T01:21:33.869Z,13.30
2018-07-15T01:22:08.059Z,13.30
2018-07-15T01:22:41.965Z,13.30
2018-07-15T01:23:16.305Z,13.30
2018-07-15T01:23:50.524Z,13.30
2018-07-15T01:24:24.556Z,13.30
2018-07-15T01:24:58.439Z,13.30
2018-07-15T01:26:05.879Z,13.20
2018-07-15T01:26:40.151Z,13.20
2018-07-15T01:27:14.367Z,13.20
2018-07-15T01:27:48.310Z,13.20
2018-07-15T01:28:56.053Z,13.20
2018-07-15T01:29:29.898Z,13.20
2018-07-15T01:30:03.754Z,13.20
2018-07-15T01:30:37.615Z,13.20
2018-07-15T01:31:12.227Z,13.20
2018-07-15T01:31:46.074Z,13.20
2018-07-15T01:32:19.945Z,13.20
2018-07-15T01:32:54.334Z,13.20
2018-07-15T01:33:28.186Z,13.20
2018-07-15T01:34:02.045Z,13.20
2018-07-15T01:35:39.099Z,13.20
2018-07-15T01:36:12.934Z,13.20
2018-07-15T01:36:46.783Z,13.20
2018-07-15T01:37:20.615Z,13.20
2018-07-15T01:37:54.766Z,13.10
2018-07-15T01:38:28.958Z,13.20
2018-07-15T01:39:02.917Z,13.20
2018-07-15T01:39:36.760Z,13.20
2018-07-15T01:40:10.577Z,13.10
2018-07-15T01:40:44.481Z,13.10
2018-07-15T01:41:18.633Z,13.10
2018-07-15T01:41:52.642Z,13.10
2018-07-15T01:42:26.547Z,13.10
2018-07-15T01:43:01.063Z,13.10
2018-07-15T01:43:34.919Z,13.10
2018-07-15T01:44:09.117Z,13.10
2018-07-15T01:44:43.301Z,13.10
2018-07-15T01:45:17.341Z,13.10
2018-07-15T01:45:51.191Z,13.10
2018-07-15T01:46:25.361Z,13.10
2018-07-15T01:46:59.986Z,13.10
2018-07-15T01:47:33.898Z,13.10
2018-07-15T01:48:07.850Z,13.10
2018-07-15T01:48:42.038Z,13.00
2018-07-15T01:49:15.971Z,13.10
2018-07-15T01:49:49.817Z,13.00
2018-07-15T01:50:23.673Z,13.00
2018-07-15T01:50:57.541Z,13.00
2018-07-15T01:51:31.417Z,13.00
2018-07-15T01:52:05.621Z,13.00
2018-07-15T01:52:39.486Z,13.00
2018-07-15T01:53:13.379Z,13.00
2018-07-15T01:53:47.409Z,13.00
2018-07-15T01:54:21.301Z,13.00
2018-07-15T01:54:55.506Z,13.00
2018-07-15T01:55:30.037Z,13.00
2018-07-15T01:56:04.188Z,13.00
2018-07-15T01:56:38.059Z,13.00
2018-07-15T01:57:11.933Z,13.00
2018-07-15T01:57:45.796Z,13.00
2018-07-15T01:58:19.761Z,13.00
2018-07-15T01:58:53.965Z,13.00
2018-07-15T01:59:27.837Z,12.90
2018-07-15T02:00:01.732Z,13.00
2018-07-15T02:00:35.607Z,12.90
2018-07-15T02:01:09.792Z,12.90
2018-07-15T02:01:44.323Z,12.90
2018-07-15T02:02:18.899Z,12.90
2018-07-15T02:02:52.821Z,12.90
2018-07-15T02:03:26.659Z,12.90
2018-07-15T02:04:00.859Z,12.90
2018-07-15T02:04:34.729Z,12.90
2018-07-15T02:05:08.624Z,12.90
2018-07-15T02:05:42.453Z,12.90
2018-07-15T02:06:16.641Z,12.90
2018-07-15T02:06:50.517Z,12.90
2018-07-15T02:07:25.053Z,12.90
2018-07-15T02:07:58.905Z,12.90
2018-07-15T02:08:33.123Z,12.90
2018-07-15T02:09:07.309Z,12.90
2018-07-15T02:09:41.239Z,12.90
2018-07-15T02:10:15.431Z,12.90
2018-07-15T02:10:49.326Z,12.90
2018-07-15T02:11:23.517Z,12.90
2018-07-15T02:11:57.412Z,12.90
2018-07-15T02:12:31.625Z,12.90
2018-07-15T02:13:06.119Z,12.90
2018-07-15T02:13:40.675Z,12.90
2018-07-15T02:14:14.521Z,12.80
2018-07-15T02:14:48.475Z,12.80
2018-07-15T02:15:23.014Z,12.80
2018-07-15T02:15:56.865Z,12.80
2018-07-15T02:16:30.697Z,12.80
2018-07-15T02:17:04.537Z,12.80
2018-07-15T02:17:38.785Z,12.80
2018-07-15T02:18:12.937Z,12.80
2018-07-15T02:19:20.963Z,12.80
2018-07-15T02:19:55.180Z,12.80
2018-07-15T02:20:29.158Z,12.80
2018-07-15T02:21:03.027Z,12.80
2018-07-15T02:21:36.849Z,12.80
2018-07-15T02:22:10.691Z,12.70
2018-07-15T02:22:44.531Z,12.70
2018-07-15T02:23:18.397Z,12.70
2018-07-15T02:23:52.239Z,12.70
2018-07-15T02:24:26.061Z,12.70
2018-07-15T02:24:59.905Z,12.70
2018-07-15T02:25:33.777Z,12.70
2018-07-15T02:26:07.625Z,12.70
2018-07-15T02:26:41.701Z,12.70
2018-07-15T02:27:15.590Z,12.70
2018-07-15T02:27:49.445Z,12.70
2018-07-15T02:28:23.652Z,12.70
2018-07-15T02:28:57.554Z,12.70
2018-07-15T02:29:31.413Z,12.70
2018-07-15T02:30:05.424Z,12.70
2018-07-15T02:30:39.236Z,12.70
2018-07-15T02:31:47.000Z,12.70
2018-07-15T02:32:21.182Z,12.70
2018-07-15T02:32:55.013Z,12.70
2018-07-15T02:33:28.853Z,12.70
2018-07-15T02:34:02.737Z,12.70
2018-07-15T02:34:36.942Z,12.80
2018-07-15T02:35:11.174Z,12.70
2018-07-15T02:35:45.674Z,12.70
2018-07-15T02:36:19.643Z,12.70
2018-07-15T02:36:53.632Z,12.70
2018-07-15T02:37:27.608Z,12.70
2018-07-15T02:38:01.473Z,12.70
2018-07-15T02:38:35.431Z,12.70
2018-07-15T02:39:10.252Z,12.70
2018-07-15T02:39:44.112Z,12.70
2018-07-15T02:40:18.062Z,12.70
2018-07-15T02:40:51.984Z,12.70
2018-07-15T02:41:29.871Z,12.70
2018-07-15T02:42:04.189Z,12.70
2018-07-15T02:42:38.053Z,12.70
2018-07-15T02:43:12.309Z,12.70
2018-07-15T02:43:46.166Z,12.70
2018-07-15T02:44:20.064Z,12.70
2018-07-15T02:44:54.258Z,12.70
2018-07-15T02:45:28.135Z,12.70
2018-07-15T02:46:02.374Z,12.70
2018-07-15T02:46:36.410Z,12.70
2018-07-15T02:47:10.324Z,12.70
2018-07-15T02:47:44.553Z,12.70
2018-07-15T02:48:18.737Z,12.70
2018-07-15T02:48:52.603Z,12.70
2018-07-15T02:49:26.475Z,12.70
2018-07-15T02:50:00.366Z,12.70
2018-07-15T02:50:34.263Z,12.70
2018-07-15T02:51:41.673Z,12.70
2018-07-15T02:52:15.871Z,12.70
2018-07-15T02:52:49.745Z,12.70
2018-07-15T02:53:23.807Z,12.70
2018-07-15T02:53:58.117Z,12.70
2018-07-15T02:54:32.317Z,12.70
2018-07-15T02:55:06.671Z,12.70
2018-07-15T02:55:40.559Z,12.70
2018-07-15T02:56:14.432Z,12.70
2018-07-15T02:56:48.323Z,12.70
2018-07-15T02:57:22.846Z,12.70
2018-07-15T02:57:56.727Z,12.70
2018-07-15T02:58:30.565Z,12.70
2018-07-15T02:59:04.467Z,12.70
2018-07-15T02:59:38.339Z,12.70
2018-07-15T03:00:12.529Z,12.80
2018-07-15T03:00:46.450Z,12.80
2018-07-15T03:01:20.370Z,12.80
2018-07-15T03:01:54.243Z,12.80
2018-07-15T03:02:28.445Z,12.70
2018-07-15T03:03:02.316Z,12.70
2018-07-15T03:03:36.901Z,12.70
2018-07-15T03:04:10.765Z,12.70
2018-07-15T03:04:44.699Z,12.80
2018-07-15T03:05:18.763Z,12.70
2018-07-15T03:05:52.676Z,12.80
2018-07-15T03:06:26.579Z,12.80
2018-07-15T03:07:00.462Z,12.80
2018-07-15T03:07:34.675Z,12.80
2018-07-15T03:08:08.721Z,12.80
2018-07-15T03:08:42.627Z,12.80
2018-07-15T03:09:16.503Z,12.80
2018-07-15T03:09:50.364Z,12.80
2018-07-15T03:10:24.405Z,12.80
2018-07-15T03:10:58.641Z,12.80
2018-07-15T03:11:32.804Z,12.80
2018-07-15T03:12:06.640Z,12.80
2018-07-15T03:12:40.543Z,12.80
2018-07-15T03:13:14.404Z,12.80
2018-07-15T03:13:49.015Z,12.80
2018-07-15T03:14:22.896Z,12.80
2018-07-15T03:14:56.994Z,12.80
2018-07-15T03:15:30.878Z,12.80
2018-07-15T03:16:04.793Z,12.80
2018-07-15T03:16:38.683Z,12.80
2018-07-15T03:17:12.601Z,12.80
2018-07-15T03:17:46.781Z,12.80
2018-07-15T03:18:20.709Z,12.80
2018-07-15T03:18:54.568Z,12.80
2018-07-15T03:19:28.434Z,12.80
2018-07-15T03:20:02.645Z,12.80
2018-07-15T03:20:36.501Z,12.80
2018-07-15T03:21:10.399Z,12.80
2018-07-15T03:22:19.057Z,12.90
2018-07-15T03:22:53.385Z,12.90
2018-07-15T03:23:27.618Z,12.90
2018-07-15T03:24:01.827Z,12.90
2018-07-15T03:25:09.543Z,12.90
2018-07-15T03:25:43.456Z,12.90
2018-07-15T03:26:17.712Z,12.90
2018-07-15T03:26:51.665Z,12.90
2018-07-15T03:27:25.537Z,12.90
2018-07-15T03:27:59.395Z,13.00
2018-07-15T03:28:33.768Z,13.00
2018-07-15T03:29:07.642Z,13.00
2018-07-15T03:29:41.487Z,13.00
2018-07-15T03:30:16.046Z,13.00
2018-07-15T03:30:50.525Z,13.10
2018-07-15T03:31:24.395Z,13.10
2018-07-15T03:31:58.283Z,13.10
2018-07-15T03:32:32.093Z,13.20
2018-07-15T03:33:39.487Z,13.20
2018-07-15T03:34:14.053Z,13.30
2018-07-15T03:34:48.441Z,13.30
2018-07-15T03:35:22.281Z,13.40
2018-07-15T03:36:29.790Z,13.50
2018-07-15T03:37:06.264Z,13.60
2018-07-15T03:37:40.110Z,13.70
2018-07-15T03:38:14.055Z,13.80
2018-07-15T03:38:48.261Z,13.90
2018-07-15T03:39:22.099Z,14.10
2018-07-15T03:39:56.120Z,14.20
2018-07-15T03:40:29.976Z,14.40
2018-07-15T03:41:04.153Z,14.50
2018-07-15T03:41:38.030Z,14.70
2018-07-15T03:42:12.190Z,14.80
2018-07-15T03:42:46.142Z,15.00
2018-07-15T03:43:20.036Z,15.10
2018-07-15T03:43:54.205Z,15.30
2018-07-15T03:44:28.028Z,15.40
2018-07-15T03:45:02.211Z,15.50
2018-07-15T03:45:36.584Z,15.60
2018-07-15T03:46:10.427Z,15.70
2018-07-15T03:46:44.365Z,15.80
2018-07-15T03:47:18.202Z,15.90
2018-07-15T03:47:52.415Z,16.00
2018-07-15T03:48:26.261Z,16.10
2018-07-15T03:49:01.571Z,16.10
2018-07-15T03:49:35.422Z,16.30
2018-07-15T03:50:12.599Z,16.40
2018-07-15T03:51:21.059Z,16.50
2018-07-15T03:51:54.915Z,16.60
2018-07-15T03:52:28.760Z,16.70
2018-07-15T03:53:02.948Z,16.70
2018-07-15T03:53:36.773Z,16.80
2018-07-15T03:54:10.942Z,16.90
2018-07-15T03:54:44.819Z,17.00
2018-07-15T03:55:19.025Z,17.10
2018-07-15T03:55:52.885Z,17.10
2018-07-15T03:56:26.757Z,17.20
2018-07-15T03:57:00.652Z,17.20
2018-07-15T03:57:34.848Z,17.30
2018-07-15T03:58:08.853Z,17.40
2018-07-15T03:58:42.707Z,17.50
2018-07-15T03:59:16.894Z,17.50
2018-07-15T03:59:50.743Z,17.50
2018-07-15T04:00:24.605Z,17.60
2018-07-15T04:01:32.390Z,17.80
2018-07-15T04:02:06.642Z,17.90
2018-07-15T04:02:40.510Z,17.90
2018-07-15T04:03:14.377Z,18.00
2018-07-15T04:03:48.244Z,18.10
2018-07-15T04:04:25.692Z,18.10
2018-07-15T04:04:59.646Z,18.10
2018-07-15T04:05:33.519Z,18.20
2018-07-15T04:06:07.359Z,18.20
2018-07-15T04:06:41.526Z,18.30
2018-07-15T04:07:16.161Z,18.30
2018-07-15T04:07:50.048Z,18.40
2018-07-15T04:08:23.925Z,18.40
2018-07-15T04:08:57.946Z,18.50
2018-07-15T04:09:31.984Z,18.50
2018-07-15T04:10:06.158Z,18.60
2018-07-15T04:10:40.341Z,18.60
2018-07-15T04:11:14.504Z,18.70
2018-07-15T04:11:48.370Z,18.70
2018-07-15T04:12:22.237Z,18.80
2018-07-15T04:12:56.453Z,18.90
2018-07-15T04:13:30.361Z,18.90
2018-07-15T04:14:04.304Z,19.00
2018-07-15T04:14:38.133Z,19.00
2018-07-15T04:15:12.644Z,19.10
2018-07-15T04:15:46.477Z,19.10
2018-07-15T04:16:21.805Z,19.10
2018-07-15T04:16:56.116Z,19.20
2018-07-15T04:17:30.064Z,19.30
2018-07-15T04:18:06.241Z,19.40
2018-07-15T04:18:40.101Z,19.40
2018-07-15T04:19:14.072Z,19.50
2018-07-15T04:19:47.940Z,19.60
2018-07-15T04:20:22.105Z,19.70
2018-07-15T04:20:56.281Z,19.80
2018-07-15T04:21:30.204Z,19.90
2018-07-15T04:22:04.074Z,19.90
2018-07-15T04:22:37.924Z,20.00
2018-07-15T04:23:12.096Z,20.10
2018-07-15T04:23:45.965Z,20.10
2018-07-15T04:24:19.818Z,20.20
2018-07-15T04:24:54.186Z,20.30
2018-07-15T04:25:28.038Z,20.40
2018-07-15T04:26:01.930Z,20.40
2018-07-15T04:26:35.858Z,20.50
2018-07-15T04:27:09.697Z,20.50
2018-07-15T04:27:43.636Z,20.60
2018-07-15T04:28:17.479Z,20.60
2018-07-15T04:28:51.868Z,20.70
2018-07-15T04:29:25.736Z,20.70
2018-07-15T04:29:59.580Z,20.70
2018-07-15T04:30:33.444Z,20.80
2018-07-15T04:31:07.624Z,20.90
2018-07-15T04:31:41.492Z,20.90
2018-07-15T04:32:16.039Z,20.90
2018-07-15T04:32:49.958Z,21.00
2018-07-15T04:33:23.837Z,21.00
2018-07-15T04:33:58.016Z,21.00
2018-07-15T04:34:31.992Z,21.00
2018-07-15T04:35:05.825Z,21.10
2018-07-15T04:35:39.701Z,21.10
2018-07-15T04:36:13.576Z,21.10
2018-07-15T04:36:48.081Z,21.10
2018-07-15T04:37:22.249Z,21.00
2018-07-15T04:37:56.149Z,21.00
2018-07-15T04:38:30.188Z,21.10
2018-07-15T04:39:04.946Z,21.10
2018-07-15T04:39:39.112Z,21.20
2018-07-15T04:40:13.635Z,21.20
2018-07-15T04:40:47.472Z,21.20
2018-07-15T04:41:21.651Z,21.20
2018-07-15T04:41:55.488Z,21.30
2018-07-15T04:42:29.706Z,21.30
2018-07-15T04:43:03.977Z,21.30
2018-07-15T04:43:37.907Z,21.40
2018-07-15T04:44:11.730Z,21.40
2018-07-15T04:44:45.938Z,21.50
2018-07-15T04:45:20.587Z,21.50
2018-07-15T04:45:54.437Z,21.50
2018-07-15T04:46:28.280Z,21.50
2018-07-15T04:47:02.493Z,21.50
2018-07-15T04:47:36.299Z,21.50
2018-07-15T04:48:10.214Z,21.60
2018-07-15T04:48:44.048Z,21.60
2018-07-15T04:49:17.927Z,21.70
2018-07-15T04:49:51.772Z,21.70
2018-07-15T04:50:25.584Z,21.70
2018-07-15T04:50:59.464Z,21.70
2018-07-15T04:51:33.279Z,21.80
2018-07-15T04:52:07.295Z,21.90
2018-07-15T04:52:41.148Z,22.00
2018-07-15T04:53:48.845Z,22.00
2018-07-15T04:54:22.728Z,22.10
2018-07-15T04:54:56.575Z,22.20
2018-07-15T04:55:30.410Z,22.30
2018-07-15T04:56:04.920Z,22.30
2018-07-15T04:56:42.080Z,22.40
2018-07-15T04:57:16.238Z,22.50
2018-07-15T04:57:50.448Z,22.50
2018-07-15T04:58:24.661Z,22.60
2018-07-15T04:58:58.579Z,22.60
2018-07-15T04:59:32.439Z,22.70
2018-07-15T05:00:06.709Z,22.70
2018-07-15T05:00:40.906Z,22.80
2018-07-15T05:01:14.748Z,22.90
2018-07-15T05:01:48.589Z,22.90
2018-07-15T05:02:22.791Z,22.90
2018-07-15T05:02:56.612Z,22.90
2018-07-15T05:03:30.489Z,23.00
2018-07-15T05:04:04.430Z,23.10
2018-07-15T05:04:38.257Z,23.10
2018-07-15T05:05:12.116Z,23.20
2018-07-15T05:05:45.988Z,23.30
2018-07-15T05:06:19.802Z,23.30
2018-07-15T05:06:54.027Z,23.40
2018-07-15T05:07:27.880Z,23.40
2018-07-15T05:08:01.682Z,23.40
2018-07-15T05:08:35.882Z,23.50
2018-07-15T05:09:09.763Z,23.50
2018-07-15T05:09:43.636Z,23.60
2018-07-15T05:10:17.558Z,23.60
2018-07-15T05:10:51.425Z,23.70
2018-07-15T05:11:25.550Z,23.70
2018-07-15T05:11:59.585Z,23.80
2018-07-15T05:12:33.423Z,23.80
2018-07-15T05:13:07.608Z,23.80
2018-07-15T05:13:41.872Z,23.90
2018-07-15T05:14:15.706Z,24.00
2018-07-15T05:14:49.510Z,24.00
2018-07-15T05:15:23.751Z,24.00
2018-07-15T05:15:57.622Z,24.00
2018-07-15T05:16:31.462Z,24.00
2018-07-15T05:17:05.975Z,24.10
2018-07-15T05:17:40.157Z,24.10
2018-07-15T05:18:14.034Z,24.00
2018-07-15T05:18:47.934Z,24.00
2018-07-15T05:19:21.777Z,24.10
2018-07-15T05:20:29.188Z,24.20
2018-07-15T05:21:03.054Z,24.20
2018-07-15T05:21:36.874Z,24.20
2018-07-15T05:22:11.966Z,24.20
2018-07-15T05:22:46.114Z,24.20
2018-07-15T05:23:20.295Z,24.20
2018-07-15T05:23:54.154Z,24.10
2018-07-15T05:24:28.025Z,24.10
2018-07-15T05:25:01.969Z,24.10
2018-07-15T05:25:35.980Z,24.20
2018-07-15T05:26:09.867Z,24.10
2018-07-15T05:26:43.740Z,24.10
2018-07-15T05:27:17.597Z,24.00
2018-07-15T05:27:51.441Z,23.90
2018-07-15T05:28:25.326Z,23.90
2018-07-15T05:29:00.747Z,23.80
2018-07-15T05:29:34.570Z,23.90
2018-07-15T05:30:08.464Z,24.00
2018-07-15T05:30:42.993Z,24.00
2018-07-15T05:31:17.142Z,24.00
2018-07-15T05:31:51.034Z,24.00
2018-07-15T05:32:25.181Z,24.00
2018-07-15T05:32:59.033Z,24.10
2018-07-15T05:33:32.876Z,24.10
2018-07-15T05:34:06.707Z,24.10
2018-07-15T05:34:40.520Z,24.20
2018-07-15T05:35:14.332Z,24.20
2018-07-15T05:35:48.156Z,24.10
2018-07-15T05:36:21.982Z,24.20
2018-07-15T05:36:56.246Z,24.20
2018-07-15T05:37:30.114Z,24.20
2018-07-15T05:38:04.604Z,24.10
2018-07-15T05:38:38.527Z,24.10
2018-07-15T05:39:12.844Z,24.10
2018-07-15T05:39:46.692Z,24.10
2018-07-15T05:40:20.632Z,24.10
2018-07-15T05:40:54.812Z,24.10
2018-07-15T05:42:02.313Z,24.10
2018-07-15T05:42:36.164Z,24.20
2018-07-15T05:43:10.366Z,24.10
2018-07-15T05:43:44.181Z,24.10
2018-07-15T05:44:18.176Z,24.00
2018-07-15T05:44:52.160Z,24.00
2018-07-15T05:45:26.327Z,24.00
2018-07-15T05:46:00.310Z,23.90
2018-07-15T05:46:34.486Z,23.90
2018-07-15T05:47:08.349Z,23.90
2018-07-15T05:47:42.381Z,24.00
2018-07-15T05:48:17.182Z,24.20
2018-07-15T05:48:51.028Z,24.20
2018-07-15T05:49:24.910Z,24.30
2018-07-15T05:49:58.754Z,24.30
2018-07-15T05:50:32.933Z,24.30
2018-07-15T05:51:07.072Z,24.20
2018-07-15T05:51:41.250Z,24.20
2018-07-15T05:52:15.120Z,24.30
2018-07-15T05:52:49.306Z,24.30
2018-07-15T05:53:23.145Z,24.40
2018-07-15T05:53:57.723Z,24.50
2018-07-15T05:54:31.568Z,24.50
2018-07-15T05:55:05.726Z,24.50
2018-07-15T05:55:39.564Z,24.50
2018-07-15T05:56:13.740Z,24.50
2018-07-15T05:56:47.987Z,24.60
2018-07-15T05:57:21.892Z,24.70
2018-07-15T05:57:56.108Z,24.70
2018-07-15T05:58:30.191Z,24.80
2018-07-15T05:59:37.616Z,24.80
2018-07-15T06:00:11.778Z,24.80
2018-07-15T06:00:46.003Z,24.90
2018-07-15T06:01:20.204Z,24.90
2018-07-15T06:01:54.049Z,24.90
2018-07-15T06:02:27.922Z,24.90
2018-07-15T06:03:01.756Z,24.90
2018-07-15T06:03:35.661Z,24.90
2018-07-15T06:04:09.656Z,24.90
2018-07-15T06:04:43.908Z,24.80
2018-07-15T06:05:17.731Z,24.80
2018-07-15T06:05:51.576Z,24.80
2018-07-15T06:06:25.398Z,24.80
2018-07-15T06:06:59.601Z,24.70
2018-07-15T06:07:33.946Z,24.70
2018-07-15T06:08:08.021Z,24.70
2018-07-15T06:08:42.225Z,24.70
2018-07-15T06:09:16.141Z,24.70
2018-07-15T06:09:50.058Z,24.80
2018-07-15T06:10:24.300Z,24.80
2018-07-15T06:10:58.140Z,24.80
2018-07-15T06:11:32.300Z,24.80
2018-07-15T06:12:06.332Z,24.80
2018-07-15T06:12:40.212Z,24.80
2018-07-15T06:13:14.716Z,24.70
2018-07-15T06:13:48.856Z,24.70
2018-07-15T06:14:22.694Z,24.60
2018-07-15T06:14:57.113Z,24.50
2018-07-15T06:15:30.952Z,24.50
2018-07-15T06:16:05.210Z,24.40
2018-07-15T06:16:39.034Z,24.40
2018-07-15T06:17:13.211Z,24.40
2018-07-15T06:17:47.245Z,24.30
2018-07-15T06:18:21.441Z,24.30
2018-07-15T06:18:55.266Z,24.20
2018-07-15T06:19:29.447Z,24.20
2018-07-15T06:20:03.323Z,24.10
2018-07-15T06:20:37.505Z,24.10
2018-07-15T06:21:11.770Z,24.00
2018-07-15T06:21:45.613Z,23.90
2018-07-15T06:22:19.474Z,23.90
2018-07-15T06:22:53.515Z,23.70
2018-07-15T06:23:27.734Z,23.60
2018-07-15T06:24:01.577Z,23.40
2018-07-15T06:24:35.795Z,23.30
2018-07-15T06:25:09.689Z,23.20
2018-07-15T06:25:43.846Z,23.00
2018-07-15T06:26:18.046Z,22.90
2018-07-15T06:26:51.925Z,22.80
2018-07-15T06:27:26.106Z,22.80
2018-07-15T06:27:59.944Z,22.80
2018-07-15T06:29:36.876Z,22.80
2018-07-15T06:30:10.787Z,22.70
2018-07-15T06:30:44.686Z,22.60
2018-07-15T06:31:18.528Z,22.60
2018-07-15T06:31:52.554Z,22.60
2018-07-15T06:32:26.914Z,22.60
2018-07-15T06:33:00.749Z,22.70
2018-07-15T06:33:34.681Z,22.70
2018-07-15T06:34:08.950Z,22.70
2018-07-15T06:34:42.784Z,22.70
2018-07-15T06:35:16.782Z,22.80
2018-07-15T06:36:24.660Z,22.90
2018-07-15T06:36:58.538Z,22.80
2018-07-15T06:37:32.743Z,22.80
2018-07-15T06:38:07.014Z,22.70
2018-07-15T06:38:40.959Z,22.70
2018-07-15T06:39:14.958Z,22.70
2018-07-15T06:39:48.797Z,22.70
2018-07-15T06:40:23.364Z,22.70
2018-07-15T06:40:57.566Z,22.70
2018-07-15T06:41:31.439Z,22.60
2018-07-15T06:42:05.593Z,22.70
2018-07-15T06:42:39.448Z,22.70
2018-07-15T06:43:13.344Z,22.70
2018-07-15T06:43:47.175Z,22.70
2018-07-15T06:44:21.376Z,22.80
2018-07-15T06:44:55.273Z,22.70
2018-07-15T06:45:29.474Z,22.70
2018-07-15T06:46:03.342Z,22.60
2018-07-15T06:46:37.210Z,22.50
2018-07-15T06:47:11.426Z,22.50
2018-07-15T06:47:45.257Z,22.40
2018-07-15T06:48:19.261Z,22.40
2018-07-15T06:48:53.113Z,22.30
2018-07-15T06:49:26.940Z,22.30
2018-07-15T06:50:00.918Z,22.20
2018-07-15T06:50:35.137Z,22.20
2018-07-15T06:51:08.972Z,22.20
2018-07-15T06:51:43.291Z,22.30
2018-07-15T06:52:17.238Z,22.30
2018-07-15T06:52:51.472Z,22.30
2018-07-15T06:53:26.034Z,22.20
2018-07-15T06:53:59.948Z,22.20
2018-07-15T06:54:34.274Z,22.20
2018-07-15T06:55:08.192Z,22.20
2018-07-15T06:55:42.160Z,22.10
2018-07-15T06:56:16.037Z,22.10
2018-07-15T06:56:50.224Z,22.00
2018-07-15T06:57:24.229Z,21.90
2018-07-15T06:57:58.078Z,21.90
2018-07-15T06:58:31.971Z,21.80
2018-07-15T06:59:06.291Z,21.80
2018-07-15T06:59:40.140Z,21.80
2018-07-15T07:00:13.979Z,21.80
2018-07-15T07:00:47.873Z,21.70
2018-07-15T07:01:22.527Z,21.60
2018-07-15T07:01:56.674Z,21.60
2018-07-15T07:02:30.508Z,21.50
2018-07-15T07:03:04.709Z,21.50
2018-07-15T07:03:38.557Z,21.40
2018-07-15T07:04:12.409Z,21.40
2018-07-15T07:04:46.619Z,21.40
2018-07-15T07:05:20.488Z,21.40
2018-07-15T07:05:54.515Z,21.30
2018-07-15T07:06:28.398Z,21.30
2018-07-15T07:07:02.255Z,21.40
2018-07-15T07:07:36.176Z,21.40
2018-07-15T07:08:10.177Z,21.40
2018-07-15T07:08:44.076Z,21.40
2018-07-15T07:09:17.929Z,21.50
2018-07-15T07:09:52.099Z,21.50
2018-07-15T07:10:26.320Z,21.50
2018-07-15T07:11:00.177Z,21.40
2018-07-15T07:11:34.261Z,21.40
2018-07-15T07:12:08.130Z,21.40
2018-07-15T07:12:42.067Z,21.40
2018-07-15T07:13:16.610Z,21.40
2018-07-15T07:13:51.530Z,21.30
2018-07-15T07:14:58.913Z,21.30
2018-07-15T07:16:06.441Z,21.20
2018-07-15T07:16:40.696Z,21.10
2018-07-15T07:17:48.507Z,21.10
2018-07-15T07:18:55.874Z,21.10
2018-07-15T07:19:29.686Z,21.10
2018-07-15T07:20:03.594Z,21.10
2018-07-15T07:20:37.913Z,21.20
2018-07-15T07:21:12.365Z,21.20
2018-07-15T07:21:46.249Z,21.30
2018-07-15T07:22:20.993Z,21.30
2018-07-15T07:22:55.191Z,21.40
2018-07-15T07:24:02.596Z,21.40
2018-07-15T07:24:36.773Z,21.40
2018-07-15T07:25:10.976Z,21.40
2018-07-15T07:25:44.838Z,21.30
2018-07-15T07:26:18.717Z,21.30
2018-07-15T07:26:52.901Z,21.20
2018-07-15T07:27:27.116Z,21.10
2018-07-15T07:28:01.308Z,21.10
2018-07-15T07:28:35.523Z,21.10
2018-07-15T07:29:09.400Z,21.10
2018-07-15T07:29:43.607Z,21.10
2018-07-15T07:30:17.449Z,21.20
2018-07-15T07:30:51.385Z,21.20
2018-07-15T07:31:26.205Z,21.20
2018-07-15T07:32:00.065Z,21.20
2018-07-15T07:33:07.767Z,21.20
2018-07-15T07:33:42.293Z,21.20
2018-07-15T07:34:16.212Z,21.20
2018-07-15T07:34:50.756Z,21.20
2018-07-15T07:35:24.656Z,21.10
2018-07-15T07:35:58.697Z,21.10
2018-07-15T07:36:32.643Z,21.00
2018-07-15T07:37:07.107Z,21.00